Time;durP1;ratioP1;P1;durP2;ratioP2;P2;SDS_P1;SDS_P2;PMS_P1;PMS_P2;Temp;Humidity;BMP_temperature;BMP_pressure;BME280_temperature;BME280_humidity;BME280_pressure;Samples;Min_cycle;Max_cycle;Signal;HPM_P1;HPM_P2
2023/05/01 00:00:36;;;;;;;6.73;4.30;;;10.50;99.90;;;;;;4915449;29;20282;-78
2023/05/01 00:03:03;;;;;;;9.63;5.00;;;10.40;99.90;;;;;;4915086;29;20233;-78
2023/05/01 00:05:30;;;;;;;8.20;4.67;;;10.30;99.90;;;;;;4916588;29;20226;-77
2023/05/01 00:07:57;;;;;;;7.60;4.23;;;10.30;99.90;;;;;;4916504;29;20621;-77
2023/05/01 00:10:24;;;;;;;6.03;4.27;;;10.20;99.90;;;;;;4915365;29;20206;-78
2023/05/01 00:12:50;;;;;;;7.77;4.20;;;10.10;99.90;;;;;;4910779;29;20242;-79
2023/05/01 00:15:17;;;;;;;8.80;5.00;;;10.10;99.90;;;;;;4911434;29;20239;-77
2023/05/01 00:17:44;;;;;;;6.77;4.87;;;10.00;99.90;;;;;;4914832;29;20245;-77
2023/05/01 00:20:13;;;;;;;7.80;4.73;;;10.00;99.90;;;;;;4912752;29;20228;-78
2023/05/01 00:22:39;;;;;;;7.33;4.63;;;9.90;99.90;;;;;;4915320;29;20249;-79
2023/05/01 00:25:06;;;;;;;6.13;4.60;;;9.90;99.90;;;;;;4915278;29;20233;-77
2023/05/01 00:27:33;;;;;;;6.17;4.43;;;9.80;99.90;;;;;;4917045;29;20238;-79
2023/05/01 00:30:00;;;;;;;7.57;4.60;;;9.70;99.90;;;;;;4915217;29;20228;-79
2023/05/01 00:32:27;;;;;;;6.73;4.70;;;9.70;99.90;;;;;;4914478;29;20210;-77
2023/05/01 00:34:56;;;;;;;8.50;4.50;;;9.60;99.90;;;;;;4914959;29;20273;-77
2023/05/01 00:37:23;;;;;;;7.07;4.90;;;9.60;99.90;;;;;;4914309;29;20264;-78
2023/05/01 00:39:50;;;;;;;6.90;5.00;;;9.60;99.90;;;;;;4913886;29;20269;-78
2023/05/01 00:42:16;;;;;;;5.77;4.53;;;9.50;99.90;;;;;;4914550;29;20220;-78
2023/05/01 00:44:43;;;;;;;10.20;4.40;;;9.50;99.90;;;;;;4914857;29;20236;-77
2023/05/01 00:47:10;;;;;;;7.33;4.67;;;9.40;99.90;;;;;;4914389;29;20233;-77
2023/05/01 00:49:37;;;;;;;9.07;4.93;;;9.30;99.90;;;;;;4913157;29;20368;-78
2023/05/01 00:52:04;;;;;;;7.20;4.73;;;9.30;99.90;;;;;;4913128;29;20297;-77
2023/05/01 00:54:30;;;;;;;8.63;4.47;;;9.30;99.90;;;;;;4914055;29;20242;-78
2023/05/01 00:56:57;;;;;;;7.87;4.50;;;9.20;99.90;;;;;;4914515;29;20629;-78
2023/05/01 00:59:24;;;;;;;8.17;4.60;;;9.20;99.90;;;;;;4898070;29;20214;-77
2023/05/01 01:01:51;;;;;;;6.17;4.30;;;9.20;99.90;;;;;;4914577;29;20206;-77
2023/05/01 01:04:21;;;;;;;9.97;4.77;;;9.20;99.90;;;;;;4912253;29;20201;-78
2023/05/01 01:06:52;;;;;;;6.17;4.50;;;9.20;99.90;;;;;;4915266;29;20927;-77
2023/05/01 01:09:31;;;;;;;10.17;4.70;;;9.20;99.90;;;;;;4913977;29;20225;-78
2023/05/01 01:12:01;;;;;;;8.57;4.97;;;9.10;99.90;;;;;;4914040;29;20249;-79
2023/05/01 01:14:36;;;;;;;8.33;4.57;;;9.10;99.90;;;;;;4903133;29;20324;-77
2023/05/01 01:17:19;;;;;;;10.87;4.53;;;9.00;99.90;;;;;;4892135;29;20707;-77
2023/05/01 01:20:05;;;;;;;6.37;4.40;;;9.00;99.90;;;;;;4913837;29;20220;-78
2023/05/01 01:22:35;;;;;;;9.63;4.70;;;9.00;99.90;;;;;;4905296;29;20225;-77
2023/05/01 01:25:14;;;;;;;6.30;4.10;;;9.00;99.90;;;;;;4913624;29;20790;-78
2023/05/01 01:28:20;;;;;;;12.70;4.47;;;9.00;99.90;;;;;;4913861;29;20292;-79
2023/05/01 01:31:18;;;;;;;6.17;4.13;;;8.90;99.90;;;;;;4913414;29;20672;-78
2023/05/01 01:34:03;;;;;;;7.80;5.07;;;8.90;99.90;;;;;;4908632;29;20693;-78
2023/05/01 01:36:37;;;;;;;6.10;4.50;;;8.90;99.90;;;;;;4917131;29;20608;-78
2023/05/01 01:39:25;;;;;;;8.13;5.43;;;8.90;99.90;;;;;;4897227;29;20308;-79
2023/05/01 01:41:55;;;;;;;8.50;4.70;;;8.90;99.90;;;;;;4913873;29;20632;-79
2023/05/01 01:44:32;;;;;;;8.67;4.87;;;8.90;99.90;;;;;;4911315;29;20214;-78
2023/05/01 01:47:03;;;;;;;7.17;4.60;;;8.90;99.90;;;;;;4913512;29;20299;-78
2023/05/01 01:49:39;;;;;;;12.10;4.50;;;8.90;99.90;;;;;;4896880;29;20296;-79
2023/05/01 01:52:08;;;;;;;9.03;5.20;;;8.90;99.90;;;;;;4913669;29;20212;-79
2023/05/01 01:54:39;;;;;;;9.77;5.27;;;8.90;99.90;;;;;;4913784;29;20681;-78
2023/05/01 01:57:08;;;;;;;9.60;5.40;;;8.90;99.90;;;;;;4913292;29;20312;-78
2023/05/01 01:59:35;;;;;;;8.70;4.90;;;8.90;99.90;;;;;;4913621;29;20226;-78
2023/05/01 02:02:04;;;;;;;6.33;4.97;;;8.90;99.90;;;;;;4914967;29;20212;-78
2023/05/01 02:04:32;;;;;;;13.60;5.50;;;8.90;99.90;;;;;;4913589;29;20234;-77
2023/05/01 02:07:00;;;;;;;6.97;5.27;;;8.90;99.90;;;;;;4910018;29;20309;-78
2023/05/01 02:09:28;;;;;;;8.97;5.17;;;8.90;99.90;;;;;;4913606;29;20269;-77
2023/05/01 02:11:56;;;;;;;6.80;4.70;;;8.90;99.90;;;;;;4913892;29;20628;-79
2023/05/01 02:14:25;;;;;;;8.80;5.50;;;8.90;99.90;;;;;;4913210;29;20237;-78
2023/05/01 02:16:53;;;;;;;7.67;4.90;;;8.80;99.90;;;;;;4896640;29;20213;-79
2023/05/01 02:19:22;;;;;;;7.27;5.00;;;8.80;99.90;;;;;;4913191;29;20228;-78
2023/05/01 02:21:50;;;;;;;8.13;5.10;;;8.70;99.90;;;;;;4913721;29;20300;-79
2023/05/01 02:24:21;;;;;;;6.83;4.80;;;8.80;99.90;;;;;;4915082;29;20242;-78
2023/05/01 02:26:55;;;;;;;7.70;5.37;;;8.60;99.90;;;;;;4912983;29;20248;-78
2023/05/01 02:29:22;;;;;;;7.27;5.03;;;8.60;99.90;;;;;;4912954;29;20747;-78
2023/05/01 02:31:49;;;;;;;8.50;5.20;;;8.50;99.90;;;;;;4897071;29;20700;-78
2023/05/01 02:34:15;;;;;;;9.03;5.77;;;8.40;99.90;;;;;;4913141;29;20214;-78
2023/05/01 02:36:42;;;;;;;9.40;5.47;;;8.40;99.90;;;;;;4918288;29;20202;-77
2023/05/01 02:39:09;;;;;;;12.90;6.10;;;8.40;99.90;;;;;;4913685;29;20306;-78
2023/05/01 02:41:37;;;;;;;7.60;5.30;;;8.30;99.90;;;;;;4921350;29;20708;-78
2023/05/01 02:44:06;;;;;;;13.50;5.90;;;8.30;99.90;;;;;;4916719;29;20283;-78
2023/05/01 02:46:35;;;;;;;10.90;5.30;;;8.30;99.90;;;;;;4913086;29;20309;-79
2023/05/01 02:49:04;;;;;;;7.60;5.37;;;8.20;99.90;;;;;;4916638;29;20224;-79
2023/05/01 02:51:33;;;;;;;8.63;5.10;;;8.20;99.90;;;;;;4916392;29;20314;-79
2023/05/01 02:54:00;;;;;;;7.70;5.53;;;8.10;99.90;;;;;;4914163;29;20244;-78
2023/05/01 02:56:28;;;;;;;10.20;5.97;;;8.10;99.90;;;;;;4916408;29;20326;-78
2023/05/01 02:58:55;;;;;;;9.63;6.00;;;8.10;99.90;;;;;;4915948;29;20222;-77
2023/05/01 03:01:22;;;;;;;7.17;5.03;;;8.00;99.90;;;;;;4917743;29;20268;-79
2023/05/01 03:03:49;;;;;;;10.83;5.73;;;8.00;99.90;;;;;;4918092;29;20216;-79
2023/05/01 03:06:18;;;;;;;10.90;6.10;;;7.90;99.90;;;;;;4917221;29;20227;-78
2023/05/01 03:08:46;;;;;;;10.50;6.07;;;7.90;99.90;;;;;;4915923;29;20275;-77
2023/05/01 03:11:13;;;;;;;9.70;5.93;;;8.00;99.90;;;;;;4897843;29;20587;-76
2023/05/01 03:13:40;;;;;;;9.50;5.83;;;7.90;99.90;;;;;;4916047;29;20239;-76
2023/05/01 03:16:07;;;;;;;10.43;6.33;;;7.80;99.90;;;;;;4915578;29;20330;-77
2023/05/01 03:18:34;;;;;;;9.33;6.37;;;7.80;99.90;;;;;;4916015;29;20689;-78
2023/05/01 03:21:01;;;;;;;14.73;6.27;;;7.80;99.90;;;;;;4916333;29;20243;-77
2023/05/01 03:23:28;;;;;;;10.90;5.53;;;7.80;99.90;;;;;;4899197;29;20288;-79
2023/05/01 03:25:56;;;;;;;9.33;5.83;;;7.80;99.90;;;;;;4915604;29;20211;-77
2023/05/01 03:28:23;;;;;;;8.47;5.33;;;7.80;99.90;;;;;;4915800;29;20676;-77
2023/05/01 03:30:51;;;;;;;10.63;6.07;;;7.80;99.90;;;;;;4912441;29;20234;-77
2023/05/01 03:33:18;;;;;;;13.93;6.57;;;7.80;99.90;;;;;;4895948;29;20219;-77
2023/05/01 03:35:45;;;;;;;8.90;6.00;;;7.80;99.90;;;;;;4915193;29;20234;-78
2023/05/01 03:38:12;;;;;;;10.50;5.97;;;7.80;99.90;;;;;;4920620;29;20209;-78
2023/05/01 03:40:39;;;;;;;7.50;5.50;;;7.80;99.90;;;;;;4915152;29;20220;-79
2023/05/01 03:43:06;;;;;;;8.97;5.83;;;7.80;99.90;;;;;;4915552;29;20319;-77
2023/05/01 03:45:33;;;;;;;10.47;6.20;;;7.70;99.90;;;;;;4915335;29;20227;-77
2023/05/01 03:48:00;;;;;;;10.33;5.63;;;7.80;99.90;;;;;;4915584;29;20234;-76
2023/05/01 03:50:27;;;;;;;13.47;6.60;;;7.80;99.90;;;;;;4912916;29;20207;-77
2023/05/01 03:52:54;;;;;;;8.07;6.00;;;7.80;99.90;;;;;;4913011;29;20329;-78
2023/05/01 03:55:21;;;;;;;9.70;6.07;;;7.80;99.90;;;;;;4914754;29;20242;-79
2023/05/01 03:57:48;;;;;;;10.80;6.20;;;7.80;99.90;;;;;;4915912;29;20204;-79
2023/05/01 04:00:15;;;;;;;8.70;5.93;;;7.80;99.90;;;;;;4915096;29;20954;-78
2023/05/01 04:02:42;;;;;;;11.00;6.83;;;7.90;99.90;;;;;;4915672;29;20288;-77
2023/05/01 04:05:09;;;;;;;12.47;7.67;;;7.90;99.90;;;;;;4916006;29;20220;-78
2023/05/01 04:07:36;;;;;;;10.93;6.30;;;8.00;99.90;;;;;;4919703;29;20247;-79
2023/05/01 04:10:03;;;;;;;13.37;7.07;;;8.00;99.90;;;;;;4898766;29;20243;-77
2023/05/01 04:12:30;;;;;;;9.73;6.20;;;8.10;99.90;;;;;;4898417;29;20623;-79
2023/05/01 04:14:57;;;;;;;8.47;6.27;;;8.10;99.90;;;;;;4913267;29;20304;-79
2023/05/01 04:17:24;;;;;;;10.90;6.70;;;8.10;99.90;;;;;;4914993;29;20284;-78
2023/05/01 04:19:51;;;;;;;11.47;6.43;;;8.20;99.90;;;;;;4914389;29;20377;-78
2023/05/01 04:22:18;;;;;;;15.83;6.77;;;8.20;99.90;;;;;;4915118;29;20296;-79
2023/05/01 04:24:45;;;;;;;11.13;6.70;;;8.30;99.90;;;;;;4918990;29;20289;-79
2023/05/01 04:27:12;;;;;;;10.90;6.80;;;8.30;99.90;;;;;;4911498;29;20296;-79
2023/05/01 04:29:40;;;;;;;10.23;6.57;;;8.40;99.90;;;;;;4912500;29;20265;-76
2023/05/01 04:32:07;;;;;;;9.87;6.03;;;8.40;99.90;;;;;;4914514;29;20296;-77
2023/05/01 04:34:34;;;;;;;15.37;7.30;;;8.50;99.90;;;;;;4914154;29;20600;-77
2023/05/01 04:37:01;;;;;;;11.67;7.60;;;8.50;99.90;;;;;;4916711;29;20276;-78
2023/05/01 04:39:28;;;;;;;10.83;7.07;;;8.60;99.90;;;;;;4913891;29;20210;-77
2023/05/01 04:41:55;;;;;;;11.63;7.17;;;8.60;99.90;;;;;;4914759;29;20305;-78
2023/05/01 04:44:22;;;;;;;11.50;6.87;;;8.70;99.90;;;;;;4914978;29;20340;-79
2023/05/01 04:46:48;;;;;;;13.87;7.03;;;8.70;99.90;;;;;;4915516;29;20667;-78
2023/05/01 04:49:15;;;;;;;11.27;7.10;;;8.70;99.90;;;;;;4914144;29;20206;-77
2023/05/01 04:51:42;;;;;;;11.60;6.60;;;8.80;99.90;;;;;;4916813;29;20242;-77
2023/05/01 04:54:08;;;;;;;11.60;6.80;;;8.80;99.90;;;;;;4914106;29;20324;-77
2023/05/01 04:56:35;;;;;;;12.37;6.73;;;8.90;99.90;;;;;;4894156;29;20238;-79
2023/05/01 04:59:02;;;;;;;11.67;7.23;;;8.90;99.90;;;;;;4915641;29;20636;-77
2023/05/01 05:01:29;;;;;;;11.50;6.63;;;8.90;99.90;;;;;;4918909;29;20241;-77
2023/05/01 05:03:56;;;;;;;9.30;6.43;;;8.90;99.90;;;;;;4914101;29;20205;-78
2023/05/01 05:06:23;;;;;;;9.87;5.93;;;9.00;99.90;;;;;;4918484;29;20281;-78
2023/05/01 05:08:50;;;;;;;10.70;6.40;;;9.00;99.90;;;;;;4898323;29;20202;-78
2023/05/01 05:11:18;;;;;;;9.23;6.07;;;9.00;99.90;;;;;;4913806;29;20218;-77
2023/05/01 05:13:45;;;;;;;10.70;6.67;;;9.10;99.90;;;;;;4910273;29;20206;-79
2023/05/01 05:16:12;;;;;;;9.97;6.03;;;9.10;99.90;;;;;;4913855;29;20345;-77
2023/05/01 05:18:39;;;;;;;12.73;7.30;;;9.10;99.90;;;;;;4913862;29;20211;-78
2023/05/01 05:21:07;;;;;;;12.03;6.53;;;9.20;99.90;;;;;;4917022;29;20297;-77
2023/05/01 05:23:34;;;;;;;10.83;6.60;;;9.20;99.90;;;;;;4914244;29;20262;-78
2023/05/01 05:26:01;;;;;;;9.77;6.70;;;9.30;99.90;;;;;;4911193;29;20212;-78
2023/05/01 05:28:29;;;;;;;12.60;6.50;;;9.30;99.90;;;;;;4913713;29;20206;-76
2023/05/01 05:30:56;;;;;;;10.20;6.27;;;9.30;99.90;;;;;;4913676;29;20312;-79
2023/05/01 05:33:23;;;;;;;11.57;6.93;;;9.40;99.90;;;;;;4898755;29;20194;-78
2023/05/01 05:35:51;;;;;;;13.00;7.10;;;9.40;99.90;;;;;;4920037;29;20312;-79
2023/05/01 05:38:18;;;;;;;10.53;6.80;;;9.50;99.90;;;;;;4918368;29;21054;-81
2023/05/01 05:40:45;;;;;;;16.63;6.70;;;9.60;99.90;;;;;;4918305;29;20221;-78
2023/05/01 05:43:12;;;;;;;9.03;6.27;;;9.60;99.90;;;;;;4917782;29;20211;-77
2023/05/01 05:45:39;;;;;;;13.07;7.67;;;9.70;99.90;;;;;;4914466;29;20234;-78
2023/05/01 05:48:06;;;;;;;8.83;6.47;;;9.80;99.90;;;;;;4893092;29;20892;-79
2023/05/01 05:50:33;;;;;;;9.80;7.23;;;9.80;99.90;;;;;;4916768;29;20236;-77
2023/05/01 05:52:59;;;;;;;12.53;6.90;;;9.90;99.90;;;;;;4915313;29;20198;-78
2023/05/01 05:55:27;;;;;;;11.57;7.10;;;10.00;99.90;;;;;;4915236;28;20265;-77
2023/05/01 05:57:53;;;;;;;15.33;7.33;;;10.10;99.90;;;;;;4912111;29;20307;-77
2023/05/01 06:00:20;;;;;;;12.57;6.97;;;10.20;99.90;;;;;;4914056;29;20719;-79
2023/05/01 06:02:47;;;;;;;10.70;6.80;;;10.30;99.90;;;;;;4913448;29;20220;-78
2023/05/01 06:05:14;;;;;;;11.77;7.07;;;10.30;99.90;;;;;;4915941;29;20199;-79
2023/05/01 06:07:41;;;;;;;11.37;6.30;;;10.40;99.90;;;;;;4913450;29;20216;-77
2023/05/01 06:10:08;;;;;;;13.87;7.13;;;10.50;99.90;;;;;;4916475;29;20579;-79
2023/05/01 06:12:35;;;;;;;11.73;7.07;;;10.50;99.90;;;;;;4900278;29;20301;-79
2023/05/01 06:15:08;;;;;;;14.43;7.93;;;10.60;99.90;;;;;;4916983;29;20223;-77
2023/05/01 06:17:36;;;;;;;13.47;7.60;;;10.60;99.90;;;;;;4912687;29;20289;-78
2023/05/01 06:20:05;;;;;;;12.73;7.23;;;10.70;99.90;;;;;;4917168;29;20216;-80
2023/05/01 06:22:31;;;;;;;14.07;7.53;;;10.70;99.90;;;;;;4917096;29;20222;-78
2023/05/01 06:24:58;;;;;;;17.17;8.07;;;10.80;99.90;;;;;;4900292;29;20221;-78
2023/05/01 06:27:25;;;;;;;11.53;7.77;;;10.80;99.90;;;;;;4917005;29;20216;-79
2023/05/01 06:29:51;;;;;;;11.73;7.17;;;10.80;99.90;;;;;;4917119;29;20610;-79
2023/05/01 06:32:18;;;;;;;14.43;7.90;;;10.90;99.90;;;;;;4917388;29;20213;-77
2023/05/01 06:34:45;;;;;;;18.20;8.70;;;10.90;99.90;;;;;;4906212;29;20301;-79
2023/05/01 06:37:11;;;;;;;13.87;8.00;;;11.00;99.90;;;;;;4916913;29;20661;-79
2023/05/01 06:39:38;;;;;;;12.70;7.27;;;11.00;99.90;;;;;;4924116;29;20256;-77
2023/05/01 06:42:06;;;;;;;12.03;7.30;;;11.00;99.90;;;;;;4921392;29;20654;-78
2023/05/01 06:44:33;;;;;;;14.57;7.73;;;11.10;99.90;;;;;;4910915;29;20316;-78
2023/05/01 06:47:00;;;;;;;14.80;7.73;;;11.20;99.90;;;;;;4916818;29;20209;-79
2023/05/01 06:49:27;;;;;;;12.07;7.20;;;11.20;99.90;;;;;;4916477;29;20604;-76
2023/05/01 06:51:54;;;;;;;12.23;7.40;;;11.20;99.90;;;;;;4916470;29;20309;-78
2023/05/01 06:54:20;;;;;;;12.07;7.27;;;11.30;99.90;;;;;;4916123;29;20229;-77
2023/05/01 06:56:47;;;;;;;12.33;7.27;;;11.30;99.90;;;;;;4918486;29;20714;-78
2023/05/01 06:59:14;;;;;;;13.07;7.53;;;11.40;99.90;;;;;;4916028;29;20253;-77
2023/05/01 07:01:41;;;;;;;12.43;7.87;;;11.40;99.90;;;;;;4916049;29;20300;-77
2023/05/01 07:04:07;;;;;;;18.40;8.27;;;11.50;99.90;;;;;;4902062;29;20205;-76
2023/05/01 07:06:34;;;;;;;12.23;7.30;;;11.60;99.90;;;;;;4919546;29;20248;-77
2023/05/01 07:09:02;;;;;;;10.67;7.10;;;11.60;99.90;;;;;;4918675;29;20282;-78
2023/05/01 07:11:28;;;;;;;13.13;7.60;;;11.70;99.90;;;;;;4919621;29;20205;-79
2023/05/01 07:13:55;;;;;;;13.83;7.10;;;11.80;99.90;;;;;;4925383;29;20206;-77
2023/05/01 07:16:22;;;;;;;12.47;7.10;;;11.90;99.90;;;;;;4919582;29;20218;-77
2023/05/01 07:18:49;;;;;;;15.63;7.43;;;12.00;99.90;;;;;;4909278;29;21430;-80
2023/05/01 07:21:15;;;;;;;11.13;6.93;;;12.10;99.90;;;;;;4911484;29;20473;-77
2023/05/01 07:23:42;;;;;;;13.10;7.33;;;12.20;99.90;;;;;;4914912;29;20232;-77
2023/05/01 07:26:09;;;;;;;11.00;6.90;;;12.30;99.90;;;;;;4915431;29;20745;-78
2023/05/01 07:28:35;;;;;;;13.97;7.20;;;12.40;99.90;;;;;;4916106;29;20288;-79
2023/05/01 07:31:02;;;;;;;12.57;7.20;;;12.40;99.90;;;;;;4913014;29;20224;-77
2023/05/01 07:33:29;;;;;;;15.87;7.53;;;12.50;99.90;;;;;;4913025;29;20301;-78
2023/05/01 07:35:56;;;;;;;12.53;7.30;;;12.60;99.90;;;;;;4898280;29;20321;-79
2023/05/01 07:38:23;;;;;;;15.43;7.03;;;12.70;99.90;;;;;;4915478;29;20218;-78
2023/05/01 07:40:52;;;;;;;15.13;7.23;;;12.80;99.90;;;;;;4916203;29;20667;-79
2023/05/01 07:43:19;;;;;;;11.97;7.50;;;13.00;99.90;;;;;;4913333;29;20209;-77
2023/05/01 07:45:57;;;;;;;10.70;6.67;;;13.10;99.90;;;;;;4915099;29;20266;-78
2023/05/01 07:48:24;;;;;;;13.20;7.40;;;13.20;99.90;;;;;;4915017;29;20690;-79
2023/05/01 07:50:52;;;;;;;12.63;7.40;;;13.30;99.90;;;;;;4901017;29;20226;-78
2023/05/01 07:53:19;;;;;;;14.30;8.27;;;13.40;99.90;;;;;;4915376;29;20206;-79
2023/05/01 07:55:45;;;;;;;15.07;7.57;;;13.50;99.90;;;;;;4914524;28;20234;-79
2023/05/01 07:58:12;;;;;;;11.37;7.47;;;13.50;99.90;;;;;;4897716;29;20202;-79
2023/05/01 08:00:39;;;;;;;16.17;6.73;;;13.60;99.90;;;;;;4914270;29;20767;-77
2023/05/01 08:03:06;;;;;;;12.20;7.27;;;13.70;99.90;;;;;;4911506;29;20715;-78
2023/05/01 08:05:33;;;;;;;15.00;7.80;;;13.80;99.90;;;;;;4917644;29;20208;-78
2023/05/01 08:08:00;;;;;;;11.13;7.17;;;14.00;99.90;;;;;;4918259;29;20210;-77
2023/05/01 08:10:27;;;;;;;12.23;7.00;;;14.20;99.90;;;;;;4915848;29;20568;-77
2023/05/01 08:12:54;;;;;;;10.73;7.07;;;14.40;99.90;;;;;;4907609;29;20206;-78
2023/05/01 08:15:21;;;;;;;11.67;6.53;;;14.50;99.90;;;;;;4917156;29;20218;-77
2023/05/01 08:17:47;;;;;;;10.50;6.80;;;14.70;99.90;;;;;;4916146;29;20322;-78
2023/05/01 08:20:14;;;;;;;11.67;7.53;;;14.90;99.90;;;;;;4910035;29;20210;-78
2023/05/01 08:22:41;;;;;;;12.87;7.37;;;15.10;99.90;;;;;;4909300;29;20301;-77
2023/05/01 08:25:08;;;;;;;12.02;7.18;;;15.30;99.90;;;;;;4913690;29;20233;-77
2023/05/01 08:27:34;;;;;;;12.05;6.95;;;15.60;99.90;;;;;;4902633;29;20249;-78
2023/05/01 08:30:01;;;;;;;10.88;6.82;;;15.80;99.90;;;;;;4896862;29;20230;-78
2023/05/01 08:32:28;;;;;;;13.77;6.75;;;16.00;99.90;;;;;;4912847;29;20219;-77
2023/05/01 08:34:55;;;;;;;12.63;6.78;;;16.20;99.90;;;;;;4913861;29;20194;-77
2023/05/01 08:37:21;;;;;;;10.70;6.97;;;16.50;99.90;;;;;;4900219;29;20236;-78
2023/05/01 08:39:48;;;;;;;9.55;6.75;;;16.70;99.90;;;;;;4912404;29;20264;-78
2023/05/01 08:42:16;;;;;;;10.10;6.78;;;17.10;99.90;;;;;;4913394;29;20219;-77
2023/05/01 08:44:43;;;;;;;10.70;7.40;;;17.50;99.90;;;;;;4896507;29;20622;-76
2023/05/01 08:47:17;;;;;;;10.55;6.63;;;17.90;99.90;;;;;;4899124;29;20249;-77
2023/05/01 08:49:46;;;;;;;9.75;6.35;;;18.30;99.90;;;;;;4913309;29;20204;-77
2023/05/01 08:52:14;;;;;;;10.30;6.97;;;18.70;99.90;;;;;;4913768;29;20206;-76
2023/05/01 08:54:46;;;;;;;11.13;6.95;;;19.10;99.90;;;;;;4913301;29;20249;-78
2023/05/01 08:57:15;;;;;;;12.48;7.10;;;19.40;99.90;;;;;;4912954;29;20686;-78
2023/05/01 08:59:44;;;;;;;11.55;6.25;;;19.70;99.90;;;;;;4912884;29;20384;-77
2023/05/01 09:02:14;;;;;;;8.52;7.07;;;20.00;99.90;;;;;;4912832;29;20679;-79
2023/05/01 09:04:41;;;;;;;9.32;6.57;;;20.40;99.90;;;;;;4911138;29;20237;-78
2023/05/01 09:07:09;;;;;;;11.60;6.75;;;20.50;99.90;;;;;;4913570;29;20198;-77
2023/05/01 09:09:36;;;;;;;12.73;6.85;;;20.60;99.90;;;;;;4910158;29;20206;-78
2023/05/01 09:12:25;;;;;;;9.50;6.40;;;20.70;99.90;;;;;;4912015;29;20207;-77
2023/05/01 09:14:53;;;;;;;10.07;6.30;;;21.00;99.90;;;;;;4914343;29;20648;-80
2023/05/01 09:17:21;;;;;;;7.80;6.07;;;21.10;99.90;;;;;;4913288;29;20226;-78
2023/05/01 09:19:49;;;;;;;9.93;6.53;;;21.30;99.90;;;;;;4913016;29;20198;-79
2023/05/01 09:22:17;;;;;;;13.57;6.82;;;21.50;99.90;;;;;;4912242;29;20238;-79
2023/05/01 09:24:45;;;;;;;10.60;6.53;;;21.80;99.90;;;;;;4897751;29;20205;-79
2023/05/01 09:27:13;;;;;;;9.73;6.13;;;22.10;99.90;;;;;;4892499;29;20702;-77
2023/05/01 09:29:47;;;;;;;9.73;5.55;;;22.10;99.90;;;;;;4912693;29;20222;-77
2023/05/01 09:32:23;;;;;;;8.90;5.35;;;22.10;99.90;;;;;;4912427;29;20276;-77
2023/05/01 09:34:51;;;;;;;10.10;6.40;;;21.90;99.90;;;;;;4917887;29;20210;-80
2023/05/01 09:37:32;;;;;;;10.48;6.05;;;22.10;99.90;;;;;;4908813;29;20321;-77
2023/05/01 09:40:09;;;;;;;9.13;6.05;;;22.20;99.90;;;;;;4912514;29;20244;-79
2023/05/01 09:42:38;;;;;;;12.55;5.82;;;22.30;99.90;;;;;;4913867;29;20684;-79
2023/05/01 09:45:13;;;;;;;7.32;4.75;;;22.40;99.90;;;;;;4910365;29;20218;-78
2023/05/01 09:47:42;;;;;;;9.57;5.13;;;22.60;99.90;;;;;;4914644;29;20213;-78
2023/05/01 09:50:28;;;;;;;8.88;5.07;;;22.60;99.90;;;;;;4911954;29;20610;-78
2023/05/01 09:52:55;;;;;;;7.90;5.10;;;22.30;99.90;;;;;;4910751;29;20312;-79
2023/05/01 09:55:25;;;;;;;8.18;5.22;;;22.10;99.90;;;;;;4906779;29;20233;-78
2023/05/01 09:57:52;;;;;;;9.15;5.32;;;22.30;99.90;;;;;;4912535;29;20316;-78
2023/05/01 10:00:20;;;;;;;6.95;4.65;;;22.50;99.90;;;;;;4911072;29;20730;-78
2023/05/01 10:02:48;;;;;;;8.63;4.75;;;22.80;99.90;;;;;;4912265;29;20443;-78
2023/05/01 10:05:16;;;;;;;7.20;5.10;;;22.80;99.90;;;;;;4912993;29;20281;-78
2023/05/01 10:07:59;;;;;;;7.60;4.30;;;23.00;99.90;;;;;;4912259;29;20241;-79
2023/05/01 10:10:27;;;;;;;5.70;3.92;;;23.40;99.90;;;;;;4914601;29;20213;-77
2023/05/01 10:12:54;;;;;;;10.25;5.47;;;23.40;99.90;;;;;;4915132;29;20229;-78
2023/05/01 10:15:21;;;;;;;8.00;4.43;;;23.10;99.90;;;;;;4913020;29;20761;-78
2023/05/01 10:17:52;;;;;;;6.82;4.20;;;22.80;99.90;;;;;;4907654;29;20702;-78
2023/05/01 10:20:20;;;;;;;7.70;4.20;;;22.40;99.90;;;;;;4907822;29;20213;-78
2023/05/01 10:22:47;;;;;;;7.78;4.63;;;22.20;99.90;;;;;;4912449;29;20221;-77
2023/05/01 10:25:16;;;;;;;9.30;4.65;;;22.10;99.90;;;;;;4908664;29;20226;-77
2023/05/01 10:27:43;;;;;;;7.03;4.15;;;21.80;99.90;;;;;;4913169;29;20202;-77
2023/05/01 10:30:11;;;;;;;9.63;4.32;;;21.70;99.90;;;;;;4912233;29;20244;-77
2023/05/01 10:32:40;;;;;;;7.25;3.60;;;21.60;99.90;;;;;;4911727;29;20214;-76
2023/05/01 10:35:18;;;;;;;5.28;3.80;;;21.40;99.90;;;;;;4912036;29;20297;-78
2023/05/01 10:37:58;;;;;;;9.18;4.47;;;21.20;99.90;;;;;;4912353;29;20747;-77
2023/05/01 10:40:43;;;;;;;7.07;4.45;;;21.00;99.90;;;;;;4911434;29;20285;-77
2023/05/01 10:43:30;;;;;;;7.28;4.20;;;20.90;99.90;;;;;;4894761;29;20224;-77
2023/05/01 10:46:06;;;;;;;6.35;4.25;;;20.60;99.90;;;;;;4890474;29;20214;-76
2023/05/01 10:48:39;;;;;;;6.45;4.00;;;20.40;99.90;;;;;;4902751;29;20214;-78
2023/05/01 10:51:11;;;;;;;6.78;3.95;;;20.30;99.90;;;;;;4911199;29;20210;-78
2023/05/01 10:53:39;;;;;;;6.25;3.95;;;20.30;99.90;;;;;;4908178;29;20678;-78
2023/05/01 10:56:29;;;;;;;6.63;4.53;;;20.20;99.90;;;;;;4900079;29;20333;-77
2023/05/01 10:59:04;;;;;;;8.15;4.47;;;20.00;99.90;;;;;;4907667;29;20620;-77
2023/05/01 11:01:43;;;;;;;7.22;4.05;;;20.00;99.90;;;;;;4919359;29;20536;-77
2023/05/01 11:04:26;;;;;;;12.65;3.75;;;20.00;99.90;;;;;;4900119;29;20202;-78
2023/05/01 11:07:03;;;;;;;8.70;3.17;;;19.90;99.90;;;;;;4898046;29;20206;-77
2023/05/01 11:09:53;;;;;;;9.02;3.85;;;20.10;98.30;;;;;;4899171;29;20232;-77
2023/05/01 11:12:47;;;;;;;8.48;2.97;;;20.10;98.60;;;;;;4917565;29;20775;-77
2023/05/01 11:15:28;;;;;;;8.30;3.25;;;20.20;99.20;;;;;;4914066;29;20217;-78
2023/05/01 11:17:55;;;;;;;5.68;3.22;;;20.40;99.30;;;;;;4913388;29;20391;-77
2023/05/01 11:20:24;;;;;;;6.22;2.95;;;20.60;99.70;;;;;;4915182;29;20706;-77
2023/05/01 11:22:53;;;;;;;9.82;3.30;;;20.70;99.40;;;;;;4918460;29;20690;-77
2023/05/01 11:25:29;;;;;;;5.88;3.38;;;20.90;99.40;;;;;;4914991;29;20644;-77
2023/05/01 11:27:58;;;;;;;7.28;3.90;;;21.00;99.20;;;;;;4912932;29;20671;-77
2023/05/01 11:30:25;;;;;;;5.75;3.22;;;21.00;99.00;;;;;;4916052;29;20304;-76
2023/05/01 11:32:52;;;;;;;4.40;2.40;;;21.10;99.10;;;;;;4914896;29;20626;-77
2023/05/01 11:35:27;;;;;;;3.63;2.10;;;21.20;99.10;;;;;;4897203;29;20643;-77
2023/05/01 11:37:54;;;;;;;3.03;2.08;;;21.10;98.50;;;;;;4915423;29;20225;-77
2023/05/01 11:40:25;;;;;;;3.78;2.30;;;21.20;98.70;;;;;;4915156;29;20210;-78
2023/05/01 11:43:05;;;;;;;7.85;2.90;;;21.30;98.70;;;;;;4914022;29;20667;-77
2023/05/01 11:45:34;;;;;;;4.75;2.40;;;21.40;98.50;;;;;;4915821;29;20345;-75
2023/05/01 11:48:01;;;;;;;7.15;3.15;;;21.50;98.90;;;;;;4921761;29;20198;-76
2023/05/01 11:50:35;;;;;;;4.15;2.95;;;21.50;99.10;;;;;;4921157;29;20210;-75
2023/05/01 11:53:10;;;;;;;5.63;3.17;;;21.50;99.90;;;;;;4920257;29;20201;-77
2023/05/01 11:55:37;;;;;;;6.93;3.40;;;21.60;99.60;;;;;;4905152;29;20301;-76
2023/05/01 11:58:04;;;;;;;4.90;3.40;;;21.50;99.60;;;;;;4898405;29;20776;-76
2023/05/01 12:00:36;;;;;;;7.65;3.75;;;21.60;99.90;;;;;;4895805;29;20229;-77
2023/05/01 12:03:14;;;;;;;8.85;3.83;;;21.70;99.60;;;;;;4880212;29;20207;-76
2023/05/01 12:05:43;;;;;;;5.40;3.78;;;21.70;99.70;;;;;;4901163;29;20290;-75
2023/05/01 12:08:17;;;;;;;6.53;3.72;;;21.70;99.40;;;;;;4898635;29;20214;-77
2023/05/01 12:10:51;;;;;;;7.55;3.25;;;21.60;99.20;;;;;;4890852;29;20213;-78
2023/05/01 12:13:19;;;;;;;7.70;3.40;;;21.60;99.90;;;;;;4889654;29;20210;-77
2023/05/01 12:15:48;;;;;;;6.45;3.80;;;21.60;99.70;;;;;;4896524;29;20278;-78
2023/05/01 12:18:16;;;;;;;7.35;4.25;;;21.50;99.10;;;;;;4877352;29;20749;-78
2023/05/01 12:20:51;;;;;;;8.40;4.90;;;21.40;98.80;;;;;;4898237;29;20746;-77
2023/05/01 12:23:28;;;;;;;9.05;3.67;;;21.40;98.70;;;;;;4892348;29;20245;-76
2023/05/01 12:25:55;;;;;;;11.30;4.03;;;21.40;98.90;;;;;;4895152;29;20289;-78
2023/05/01 12:28:22;;;;;;;8.65;3.35;;;21.40;99.30;;;;;;4896768;29;20617;-77
2023/05/01 12:30:49;;;;;;;8.95;4.30;;;21.50;99.90;;;;;;4895470;29;20278;-77
2023/05/01 12:33:20;;;;;;;4.38;3.00;;;21.60;99.80;;;;;;4896058;29;20242;-77
2023/05/01 12:35:48;;;;;;;6.57;4.00;;;21.70;99.70;;;;;;4873360;29;20238;-78
2023/05/01 12:38:20;;;;;;;6.97;2.92;;;21.70;99.90;;;;;;4875193;29;20224;-78
2023/05/01 12:40:55;;;;;;;6.30;3.22;;;21.80;99.60;;;;;;4893604;29;20676;-76
2023/05/01 12:43:33;;;;;;;6.30;3.17;;;21.70;99.40;;;;;;4894291;29;20214;-77
2023/05/01 12:46:00;;;;;;;6.22;3.20;;;21.70;99.80;;;;;;4895051;29;20596;-79
2023/05/01 12:48:28;;;;;;;4.80;2.40;;;21.70;99.60;;;;;;4894394;29;20209;-80
2023/05/01 12:50:56;;;;;;;7.25;2.63;;;21.90;99.90;;;;;;4894904;29;20286;-80
2023/05/01 12:53:24;;;;;;;5.20;2.83;;;22.10;99.90;;;;;;4894730;29;20768;-80
2023/05/01 12:55:54;;;;;;;7.97;2.67;;;22.10;99.10;;;;;;4909166;29;20244;-78